createdAt,value
2023-05-19T00:01:37.911Z,2.50
2023-05-19T00:04:06.140Z,2.10
2023-05-19T00:06:37.238Z,2.60
2023-05-19T00:09:07.241Z,2.70
2023-05-19T00:11:36.390Z,2.50
2023-05-19T00:14:05.897Z,2.60
2023-05-19T00:16:34.313Z,2.30
2023-05-19T00:19:03.114Z,2.20
2023-05-19T00:21:31.474Z,2.00
2023-05-19T00:23:59.461Z,2.00
2023-05-19T00:26:27.465Z,2.20
2023-05-19T00:28:55.299Z,2.20
2023-05-19T00:31:23.358Z,2.10
2023-05-19T00:33:53.929Z,2.20
2023-05-19T00:36:22.000Z,2.40
2023-05-19T00:38:51.296Z,2.20
2023-05-19T00:41:19.202Z,2.10
2023-05-19T00:43:47.086Z,2.10
2023-05-19T00:46:15.064Z,2.10
2023-05-19T00:48:44.961Z,1.90
2023-05-19T00:51:16.996Z,2.40
2023-05-19T00:53:49.126Z,2.10
2023-05-19T00:56:17.540Z,3.00
2023-05-19T00:58:45.529Z,2.10
2023-05-19T01:01:17.298Z,2.00
2023-05-19T01:03:47.288Z,2.50
2023-05-19T01:06:15.363Z,2.30
2023-05-19T01:08:43.139Z,2.20
2023-05-19T01:11:10.900Z,2.40
2023-05-19T01:13:41.111Z,2.20
2023-05-19T01:16:13.176Z,3.00
2023-05-19T01:18:47.546Z,2.10
2023-05-19T01:21:36.491Z,2.60
2023-05-19T01:24:11.576Z,2.00
2023-05-19T01:26:59.645Z,2.50
2023-05-19T01:29:46.476Z,2.20
2023-05-19T01:32:16.921Z,2.00
2023-05-19T01:34:46.354Z,1.90
2023-05-19T01:37:15.195Z,2.70
2023-05-19T01:39:44.780Z,2.20
2023-05-19T01:42:13.447Z,2.30
2023-05-19T01:44:41.621Z,2.40
2023-05-19T01:47:10.026Z,2.20
2023-05-19T01:49:37.998Z,1.90
2023-05-19T01:52:05.937Z,2.70
2023-05-19T01:54:33.837Z,2.30
2023-05-19T01:57:11.748Z,2.50
2023-05-19T01:59:58.137Z,2.60
2023-05-19T02:02:33.078Z,2.60
2023-05-19T02:05:05.538Z,2.30
2023-05-19T02:07:36.424Z,2.10
2023-05-19T02:10:11.347Z,2.30
2023-05-19T02:12:40.564Z,2.30
2023-05-19T02:15:11.759Z,2.30
2023-05-19T02:17:41.712Z,2.60
2023-05-19T02:20:10.201Z,2.10
2023-05-19T02:22:38.062Z,2.70
2023-05-19T02:25:06.024Z,2.20
2023-05-19T02:27:38.081Z,2.50
2023-05-19T02:30:06.889Z,2.40
2023-05-19T02:32:35.197Z,2.60
2023-05-19T02:35:04.082Z,2.40
2023-05-19T02:37:32.680Z,2.20
2023-05-19T02:40:00.719Z,2.60
2023-05-19T02:42:28.612Z,2.10
2023-05-19T02:44:56.370Z,1.90
2023-05-19T02:47:24.294Z,1.90
2023-05-19T02:49:52.092Z,1.70
2023-05-19T02:52:22.880Z,2.80
2023-05-19T02:54:51.369Z,2.20
2023-05-19T02:57:19.513Z,2.30
2023-05-19T02:59:47.310Z,2.60
2023-05-19T03:02:15.188Z,1.90
2023-05-19T03:04:43.328Z,1.80
2023-05-19T03:07:11.278Z,2.00
2023-05-19T03:09:39.350Z,2.30
2023-05-19T03:12:07.863Z,1.80
2023-05-19T03:14:37.366Z,2.00
2023-05-19T03:17:08.386Z,2.40
2023-05-19T03:19:36.786Z,2.40
2023-05-19T03:22:05.099Z,2.20
2023-05-19T03:24:32.877Z,2.40
2023-05-19T03:27:00.801Z,1.90
2023-05-19T03:29:28.805Z,2.10
2023-05-19T03:31:56.633Z,2.50
2023-05-19T03:34:24.531Z,2.30
2023-05-19T03:36:52.554Z,2.00
2023-05-19T03:39:20.354Z,2.00
2023-05-19T03:41:48.190Z,2.20
2023-05-19T03:44:15.958Z,2.10
2023-05-19T03:46:43.701Z,2.10
2023-05-19T03:49:11.918Z,2.20
2023-05-19T03:51:39.855Z,2.10
2023-05-19T03:54:07.627Z,2.40
2023-05-19T03:56:38.996Z,2.20
2023-05-19T03:59:07.389Z,2.70
2023-05-19T04:01:35.086Z,2.20
2023-05-19T04:04:03.091Z,2.40
2023-05-19T04:06:31.099Z,2.60
2023-05-19T04:08:58.922Z,3.20
2023-05-19T04:11:26.877Z,2.70
2023-05-19T04:13:54.662Z,3.00
2023-05-19T04:16:22.530Z,2.70
2023-05-19T04:18:50.645Z,2.50
2023-05-19T04:21:18.671Z,2.30
2023-05-19T04:23:46.475Z,2.20
2023-05-19T04:26:18.080Z,2.40
2023-05-19T04:28:45.960Z,1.80
2023-05-19T04:31:16.043Z,1.90
2023-05-19T04:33:43.949Z,1.90
2023-05-19T04:36:13.923Z,2.20
2023-05-19T04:38:41.834Z,2.80
2023-05-19T04:41:11.260Z,1.80
2023-05-19T04:43:41.782Z,1.90
2023-05-19T04:46:13.403Z,1.70
2023-05-19T04:48:41.856Z,2.10
2023-05-19T04:51:09.578Z,1.80
2023-05-19T04:53:37.409Z,2.10
2023-05-19T04:56:08.612Z,1.90
2023-05-19T04:58:39.688Z,2.00
2023-05-19T05:01:09.697Z,2.60
2023-05-19T05:03:37.775Z,2.40
2023-05-19T05:06:06.572Z,2.90
2023-05-19T05:09:07.418Z,2.40
2023-05-19T05:11:33.081Z,1.80
2023-05-19T05:14:01.205Z,2.40
2023-05-19T05:16:29.337Z,2.40
2023-05-19T05:18:57.655Z,2.30
2023-05-19T05:21:26.281Z,2.50
2023-05-19T05:23:54.514Z,2.10
2023-05-19T05:26:23.342Z,2.60
2023-05-19T05:28:51.238Z,2.60
2023-05-19T05:31:19.081Z,2.10
2023-05-19T05:33:46.899Z,2.40
2023-05-19T05:36:14.997Z,1.80
2023-05-19T05:38:42.799Z,2.50
2023-05-19T05:41:10.578Z,3.00
2023-05-19T05:43:38.498Z,2.40
2023-05-19T05:46:06.399Z,3.10
2023-05-19T05:48:34.438Z,4.40
2023-05-19T05:51:02.326Z,2.40
2023-05-19T05:53:32.257Z,2.70
2023-05-19T05:56:00.224Z,2.10
2023-05-19T05:58:28.660Z,3.20
2023-05-19T06:00:57.848Z,3.20
2023-05-19T06:03:25.951Z,3.40
2023-05-19T06:05:53.992Z,2.80
2023-05-19T06:08:24.479Z,2.60
2023-05-19T06:10:52.362Z,2.80
2023-05-19T06:13:24.163Z,2.60
2023-05-19T06:15:52.861Z,3.10
2023-05-19T06:18:20.921Z,3.10
2023-05-19T06:20:48.896Z,2.90
2023-05-19T06:23:16.721Z,3.20
2023-05-19T06:25:44.659Z,2.80
2023-05-19T06:28:12.540Z,2.60
2023-05-19T06:30:40.311Z,2.80
2023-05-19T06:36:20.778Z,3.60
2023-05-19T06:38:48.646Z,3.30
2023-05-19T06:41:16.534Z,3.30
2023-05-19T06:43:44.375Z,2.30
2023-05-19T06:46:13.186Z,3.30
2023-05-19T06:48:50.723Z,3.50
2023-05-19T06:51:28.160Z,3.20
2023-05-19T06:54:22.435Z,3.50
2023-05-19T06:56:50.423Z,2.90
2023-05-19T06:59:18.263Z,2.40
2023-05-19T07:01:46.211Z,3.30
2023-05-19T07:04:14.274Z,4.10
2023-05-19T07:06:42.380Z,2.90
2023-05-19T07:09:10.282Z,2.70
2023-05-19T07:11:38.599Z,3.00
2023-05-19T07:14:06.505Z,2.50
2023-05-19T07:16:34.299Z,2.90
2023-05-19T07:19:02.230Z,2.70
2023-05-19T07:21:30.253Z,2.30
2023-05-19T07:23:58.146Z,2.60
2023-05-19T07:26:29.141Z,2.40
2023-05-19T07:28:57.952Z,2.30
2023-05-19T07:31:26.019Z,2.20
2023-05-19T07:33:54.881Z,2.50
2023-05-19T07:36:23.119Z,2.50
2023-05-19T07:38:50.965Z,2.60
2023-05-19T07:41:18.938Z,3.00
2023-05-19T07:43:46.783Z,2.80
2023-05-19T07:46:15.050Z,2.60
2023-05-19T07:48:43.051Z,2.40
2023-05-19T07:51:11.376Z,2.70
2023-05-19T07:53:39.453Z,2.70
2023-05-19T07:56:07.296Z,2.40
2023-05-19T07:58:35.191Z,2.60
2023-05-19T08:01:03.143Z,2.80
2023-05-19T08:03:31.299Z,2.40
2023-05-19T08:05:59.426Z,2.10
2023-05-19T08:08:27.380Z,2.20
2023-05-19T08:10:55.201Z,2.00
2023-05-19T08:13:23.152Z,2.20
2023-05-19T08:15:51.326Z,2.80
2023-05-19T08:18:20.221Z,2.20
2023-05-19T08:20:47.950Z,2.50
2023-05-19T08:23:15.805Z,2.60
2023-05-19T08:25:43.826Z,2.80
2023-05-19T08:28:11.640Z,2.60
2023-05-19T08:30:39.571Z,2.50
2023-05-19T08:33:07.398Z,2.60
2023-05-19T08:35:35.305Z,2.40
2023-05-19T08:38:03.111Z,2.90
2023-05-19T08:40:32.033Z,2.50
2023-05-19T08:42:59.948Z,2.50
2023-05-19T08:45:27.939Z,3.10
2023-05-19T08:47:55.940Z,2.40
2023-05-19T08:50:29.001Z,1.80
2023-05-19T08:53:25.111Z,2.10
2023-05-19T08:56:10.774Z,2.40
2023-05-19T08:58:39.603Z,2.10
2023-05-19T09:01:07.732Z,2.00
2023-05-19T09:03:39.416Z,2.30
2023-05-19T09:06:12.604Z,2.30
2023-05-19T09:08:41.107Z,1.90
2023-05-19T09:11:09.309Z,1.90
2023-05-19T09:13:37.197Z,2.10
2023-05-19T09:16:05.384Z,2.10
2023-05-19T09:18:33.275Z,1.80
2023-05-19T09:21:20.525Z,1.60
2023-05-19T09:23:55.803Z,1.50
2023-05-19T09:26:23.839Z,2.00
2023-05-19T09:29:00.704Z,1.40
2023-05-19T09:31:32.281Z,1.50
2023-05-19T09:34:01.416Z,1.70
2023-05-19T09:36:32.390Z,1.60
2023-05-19T09:39:00.587Z,1.60
2023-05-19T09:41:30.891Z,1.60
2023-05-19T09:44:00.003Z,2.10
2023-05-19T09:46:30.184Z,2.00
2023-05-19T09:48:58.704Z,1.60
2023-05-19T09:51:26.627Z,1.50
2023-05-19T09:53:54.786Z,1.80
2023-05-19T09:56:25.546Z,1.40
2023-05-19T09:58:53.752Z,1.70
2023-05-19T10:01:23.193Z,1.40
2023-05-19T10:03:52.520Z,1.60
2023-05-19T10:06:21.558Z,1.40
2023-05-19T10:08:50.351Z,2.10
2023-05-19T10:11:18.225Z,1.60
2023-05-19T10:13:47.405Z,1.60
2023-05-19T10:16:16.851Z,1.40
2023-05-19T10:18:44.703Z,2.00
2023-05-19T10:21:16.337Z,1.70
2023-05-19T10:23:44.145Z,1.60
2023-05-19T10:26:12.174Z,1.50
2023-05-19T10:28:41.375Z,1.60
2023-05-19T10:31:11.532Z,1.70
2023-05-19T10:33:47.207Z,1.50
2023-05-19T10:36:30.818Z,2.20
2023-05-19T10:39:13.157Z,2.20
2023-05-19T10:41:41.085Z,1.40
2023-05-19T10:44:27.795Z,2.20
2023-05-19T10:47:02.295Z,1.40
2023-05-19T10:49:34.769Z,1.30
2023-05-19T10:52:03.008Z,1.70
2023-05-19T10:54:43.451Z,2.50
2023-05-19T10:57:14.560Z,1.50
2023-05-19T10:59:45.186Z,1.60
2023-05-19T11:02:31.911Z,1.50
2023-05-19T11:05:14.883Z,2.10
2023-05-19T11:07:46.096Z,3.30
2023-05-19T11:10:14.077Z,1.60
2023-05-19T11:12:43.293Z,2.20
2023-05-19T11:15:15.214Z,2.10
2023-05-19T11:17:45.256Z,2.00
2023-05-19T11:20:26.174Z,2.20
2023-05-19T11:23:10.437Z,2.20
2023-05-19T11:25:42.399Z,1.70
2023-05-19T11:28:15.390Z,2.00
2023-05-19T11:31:17.635Z,2.20
2023-05-19T11:33:45.743Z,5.50
2023-05-19T11:36:13.702Z,1.90
2023-05-19T11:38:47.866Z,2.50
2023-05-19T11:41:18.748Z,2.00
2023-05-19T11:43:47.921Z,2.00
2023-05-19T11:46:15.866Z,2.10
2023-05-19T11:48:46.636Z,1.60
2023-05-19T11:51:14.498Z,1.40
2023-05-19T11:53:42.356Z,1.50
2023-05-19T11:56:11.766Z,1.70
2023-05-19T11:58:39.496Z,2.00
2023-05-19T12:01:07.454Z,1.60
2023-05-19T12:03:35.729Z,1.30
2023-05-19T12:06:03.918Z,1.10
2023-05-19T12:08:31.798Z,1.30
2023-05-19T12:10:59.594Z,1.10
2023-05-19T12:13:27.541Z,1.70
2023-05-19T12:15:59.237Z,1.10
2023-05-19T12:18:29.604Z,1.20
2023-05-19T12:20:57.592Z,1.60
2023-05-19T12:23:25.869Z,1.70
2023-05-19T12:25:53.692Z,1.50
2023-05-19T12:28:21.634Z,1.70
2023-05-19T12:30:52.192Z,1.80
2023-05-19T12:33:20.973Z,1.50
2023-05-19T12:35:50.004Z,2.30
2023-05-19T12:38:19.376Z,1.70
2023-05-19T12:40:47.203Z,1.60
2023-05-19T12:43:22.137Z,1.80
2023-05-19T12:45:50.122Z,1.30
2023-05-19T12:48:18.307Z,1.80
2023-05-19T12:50:46.286Z,1.70
2023-05-19T12:53:15.116Z,2.00
2023-05-19T12:55:44.099Z,3.20
2023-05-19T12:58:12.564Z,2.00
2023-05-19T13:00:41.715Z,2.00
2023-05-19T13:03:15.999Z,1.60
2023-05-19T13:05:44.761Z,1.50
2023-05-19T13:08:16.582Z,2.30
2023-05-19T13:10:45.932Z,1.90
2023-05-19T13:13:13.833Z,1.90
2023-05-19T13:15:43.081Z,2.40
2023-05-19T13:18:12.295Z,3.90
2023-05-19T13:20:40.937Z,3.00
2023-05-19T13:23:10.396Z,2.50
2023-05-19T13:25:38.287Z,1.90
2023-05-19T13:28:06.152Z,2.40
2023-05-19T13:30:35.260Z,1.90
2023-05-19T13:33:03.464Z,2.10
2023-05-19T13:35:37.585Z,4.70
2023-05-19T13:38:10.237Z,3.00
2023-05-19T13:40:39.717Z,2.60
2023-05-19T13:43:08.809Z,1.80
2023-05-19T13:45:37.317Z,1.90
2023-05-19T13:48:07.381Z,2.80
2023-05-19T13:50:35.730Z,3.50
2023-05-19T13:53:03.953Z,3.00
2023-05-19T13:55:32.334Z,2.50
2023-05-19T13:58:00.306Z,2.70
2023-05-19T14:00:28.573Z,3.20
2023-05-19T14:02:56.549Z,2.90
2023-05-19T14:05:24.474Z,2.60
2023-05-19T14:07:52.287Z,2.70
2023-05-19T14:10:20.099Z,2.70
2023-05-19T14:13:12.459Z,4.20
2023-05-19T14:15:38.035Z,3.10
2023-05-19T14:18:07.084Z,2.50
2023-05-19T14:20:35.769Z,2.50
2023-05-19T14:23:03.949Z,2.20
2023-05-19T14:25:31.798Z,3.40
2023-05-19T14:27:59.740Z,3.00
2023-05-19T14:30:27.519Z,2.50
2023-05-19T14:32:55.583Z,3.60
2023-05-19T14:35:24.130Z,2.80
2023-05-19T14:37:52.314Z,3.20
2023-05-19T14:40:20.163Z,3.30
2023-05-19T14:42:48.067Z,2.60
2023-05-19T14:45:15.965Z,10.80
2023-05-19T14:47:43.813Z,3.70
2023-05-19T14:50:11.920Z,3.20
2023-05-19T14:52:39.649Z,4.80
2023-05-19T14:55:07.781Z,2.90
2023-05-19T14:57:35.625Z,2.80
2023-05-19T15:00:03.776Z,4.70
2023-05-19T15:02:31.856Z,3.10
2023-05-19T15:05:00.991Z,3.00
2023-05-19T15:07:29.025Z,3.20
2023-05-19T15:09:56.777Z,3.40
2023-05-19T15:12:24.664Z,2.80
2023-05-19T15:14:52.693Z,3.20
2023-05-19T15:17:20.701Z,2.90
2023-05-19T15:19:48.636Z,3.30
2023-05-19T15:22:16.554Z,3.30
2023-05-19T15:24:44.365Z,4.00
2023-05-19T15:27:12.256Z,3.90
2023-05-19T15:29:40.118Z,3.50
2023-05-19T15:32:08.354Z,3.70
2023-05-19T15:34:36.165Z,3.40
2023-05-19T15:37:06.661Z,4.20
2023-05-19T15:39:35.038Z,2.80
2023-05-19T15:42:02.773Z,3.00
2023-05-19T15:44:30.852Z,4.10
2023-05-19T15:46:58.699Z,2.70
2023-05-19T15:49:26.491Z,4.00
2023-05-19T15:51:54.304Z,4.00
2023-05-19T15:54:22.326Z,4.30
2023-05-19T15:56:50.084Z,4.00
2023-05-19T15:59:18.284Z,3.10
2023-05-19T16:01:46.193Z,4.40
2023-05-19T16:04:14.296Z,5.10
2023-05-19T16:06:42.190Z,3.00
2023-05-19T16:09:10.200Z,3.30
2023-05-19T16:11:38.095Z,3.50
2023-05-19T16:14:05.844Z,4.70
2023-05-19T16:16:33.912Z,5.90
2023-05-19T16:19:01.758Z,4.00
2023-05-19T16:21:29.900Z,3.70
2023-05-19T16:23:57.841Z,3.40
2023-05-19T16:26:26.451Z,5.30
2023-05-19T16:28:54.465Z,4.20
2023-05-19T16:31:22.413Z,5.30
2023-05-19T16:33:50.428Z,4.20
2023-05-19T16:36:22.949Z,3.50
2023-05-19T16:38:50.773Z,4.30
2023-05-19T16:41:18.696Z,4.30
2023-05-19T16:43:46.728Z,5.40
2023-05-19T16:46:14.532Z,5.40
2023-05-19T16:48:42.400Z,4.30
2023-05-19T16:51:10.279Z,4.70
2023-05-19T16:53:39.717Z,4.20
2023-05-19T16:56:08.165Z,5.10
2023-05-19T16:58:36.125Z,4.60
2023-05-19T17:01:04.176Z,5.00
2023-05-19T17:03:32.362Z,4.50
2023-05-19T17:06:00.998Z,5.90
2023-05-19T17:08:28.973Z,4.60
2023-05-19T17:10:56.926Z,5.70
2023-05-19T17:13:24.776Z,5.60
2023-05-19T17:15:52.964Z,5.00
2023-05-19T17:18:21.208Z,6.00
2023-05-19T17:20:49.062Z,5.00
2023-05-19T17:23:17.058Z,4.70
2023-05-19T17:25:45.199Z,3.50
2023-05-19T17:28:13.128Z,3.90
2023-05-19T17:30:41.445Z,3.60
2023-05-19T17:33:09.433Z,4.40
2023-05-19T17:35:37.363Z,4.80
2023-05-19T17:38:05.116Z,4.50
2023-05-19T17:40:33.624Z,4.50
2023-05-19T17:43:01.624Z,4.40
2023-05-19T17:45:29.517Z,4.60
2023-05-19T17:47:57.507Z,4.40
2023-05-19T17:50:25.608Z,4.60
2023-05-19T17:52:54.492Z,3.40
2023-05-19T17:55:22.667Z,4.10
2023-05-19T17:57:50.745Z,3.60
2023-05-19T18:00:18.784Z,5.30
2023-05-19T18:02:47.539Z,5.60
2023-05-19T18:05:16.316Z,4.90
2023-05-19T18:07:44.449Z,8.50
2023-05-19T18:10:13.761Z,5.00
2023-05-19T18:12:41.847Z,6.80
2023-05-19T18:15:09.808Z,5.80
2023-05-19T18:17:37.835Z,4.70
2023-05-19T18:20:06.770Z,5.40
2023-05-19T18:22:34.696Z,4.60
2023-05-19T18:25:02.561Z,5.60
2023-05-19T18:27:31.383Z,7.80
2023-05-19T18:29:59.251Z,8.80
2023-05-19T18:32:27.088Z,7.10
2023-05-19T18:34:54.970Z,7.10
2023-05-19T18:37:23.039Z,5.80
2023-05-19T18:39:51.030Z,4.40
2023-05-19T18:42:18.927Z,4.90
2023-05-19T18:44:47.517Z,5.80
2023-05-19T18:47:15.587Z,5.50
2023-05-19T18:49:43.351Z,6.40
2023-05-19T18:52:11.402Z,6.30
2023-05-19T18:54:40.672Z,6.80
2023-05-19T18:57:09.016Z,7.10
2023-05-19T18:59:36.824Z,5.70
2023-05-19T19:02:04.732Z,7.10
2023-05-19T19:04:33.906Z,7.70
2023-05-19T19:07:01.939Z,7.70
2023-05-19T19:09:29.782Z,6.10
2023-05-19T19:11:57.723Z,5.80
2023-05-19T19:14:25.664Z,5.60
2023-05-19T19:16:53.536Z,6.10
2023-05-19T19:19:23.636Z,6.10
2023-05-19T19:21:51.777Z,6.30
2023-05-19T19:24:19.563Z,5.60
2023-05-19T19:26:47.441Z,5.40
2023-05-19T19:29:16.754Z,5.60
2023-05-19T19:31:44.670Z,4.20
2023-05-19T19:34:13.685Z,5.00
2023-05-19T19:36:41.533Z,7.30
2023-05-19T19:39:11.724Z,5.60
2023-05-19T19:41:41.000Z,6.60
2023-05-19T19:44:08.899Z,8.10
2023-05-19T19:46:39.593Z,7.30
2023-05-19T19:49:07.494Z,6.30
2023-05-19T19:51:35.356Z,5.20
2023-05-19T19:54:03.329Z,5.60
2023-05-19T19:56:31.260Z,5.60
2023-05-19T19:58:59.516Z,4.40
2023-05-19T20:01:27.960Z,4.70
2023-05-19T20:03:56.791Z,5.60
2023-05-19T20:06:24.856Z,5.30
2023-05-19T20:08:52.957Z,4.80
2023-05-19T20:11:22.935Z,5.30
2023-05-19T20:13:50.801Z,5.70
2023-05-19T20:16:18.964Z,5.10
2023-05-19T20:19:06.988Z,5.70
2023-05-19T20:22:28.010Z,5.10
2023-05-19T20:24:56.328Z,5.90
2023-05-19T20:27:24.185Z,6.10
2023-05-19T20:29:51.996Z,5.80
2023-05-19T20:32:19.721Z,5.70
2023-05-19T20:34:47.643Z,5.00
2023-05-19T20:37:16.183Z,6.50
2023-05-19T20:39:44.261Z,6.80
2023-05-19T20:42:12.963Z,5.50
2023-05-19T20:44:40.798Z,5.60
2023-05-19T20:47:09.005Z,5.90
2023-05-19T20:49:36.902Z,7.00
2023-05-19T20:52:04.842Z,6.20
2023-05-19T20:54:32.601Z,6.70
2023-05-19T20:57:00.338Z,7.10
2023-05-19T20:59:28.193Z,7.90
2023-05-19T21:01:56.002Z,7.90
2023-05-19T21:04:23.928Z,7.90
2023-05-19T21:06:51.739Z,7.10
2023-05-19T21:09:19.648Z,7.10
2023-05-19T21:11:47.921Z,7.70
2023-05-19T21:14:15.772Z,6.60
2023-05-19T21:16:43.657Z,5.70
2023-05-19T21:19:11.716Z,5.60
2023-05-19T21:21:42.713Z,6.70
2023-05-19T21:24:12.731Z,6.10
2023-05-19T21:26:41.100Z,6.20
2023-05-19T21:29:09.746Z,7.20
2023-05-19T21:31:37.733Z,6.40
2023-05-19T21:34:08.386Z,7.50
2023-05-19T21:36:36.324Z,6.60
2023-05-19T21:39:04.634Z,7.00
2023-05-19T21:41:32.612Z,7.30
2023-05-19T21:44:00.464Z,5.70
2023-05-19T21:46:29.194Z,6.60
2023-05-19T21:48:57.017Z,5.60
2023-05-19T21:51:24.994Z,6.60
2023-05-19T21:53:52.968Z,6.30
2023-05-19T21:56:21.171Z,6.90
2023-05-19T21:58:48.961Z,6.80
2023-05-19T22:01:16.796Z,7.70
2023-05-19T22:03:45.053Z,7.10
2023-05-19T22:06:12.805Z,6.80
2023-05-19T22:08:40.843Z,6.90
2023-05-19T22:11:11.317Z,7.10
2023-05-19T22:13:41.188Z,6.90
2023-05-19T22:16:09.175Z,7.40
2023-05-19T22:18:37.118Z,8.20
2023-05-19T22:21:04.934Z,7.10
2023-05-19T22:23:32.782Z,7.00
2023-05-19T22:26:03.475Z,6.20
2023-05-19T22:28:37.661Z,6.30
2023-05-19T22:31:05.514Z,5.60
2023-05-19T22:33:33.375Z,5.70
2023-05-19T22:36:01.148Z,6.10
2023-05-19T22:38:28.961Z,6.10
2023-05-19T22:40:56.802Z,5.60
2023-05-19T22:43:24.517Z,5.90
2023-05-19T22:45:52.353Z,6.10
2023-05-19T22:48:20.115Z,5.70
2023-05-19T22:50:47.917Z,5.60
2023-05-19T22:53:16.043Z,5.80
2023-05-19T22:55:46.998Z,5.30
2023-05-19T22:58:15.007Z,6.20
2023-05-19T23:00:42.827Z,6.30
2023-05-19T23:03:11.518Z,5.60
2023-05-19T23:05:39.957Z,6.40
2023-05-19T23:08:07.739Z,6.00
2023-05-19T23:10:35.639Z,5.90
2023-05-19T23:13:03.531Z,6.20
2023-05-19T23:15:31.333Z,6.30
2023-05-19T23:18:01.313Z,6.00
2023-05-19T23:20:29.362Z,7.20
2023-05-19T23:22:57.203Z,5.40
2023-05-19T23:25:25.069Z,6.30
2023-05-19T23:27:53.164Z,6.70
2023-05-19T23:30:21.012Z,6.10
2023-05-19T23:32:48.965Z,6.60
2023-05-19T23:35:17.507Z,5.90
2023-05-19T23:37:48.525Z,5.90
2023-05-19T23:40:16.400Z,5.80
2023-05-19T23:42:44.718Z,6.80
2023-05-19T23:45:12.628Z,6.20
2023-05-19T23:47:40.425Z,5.90
2023-05-19T23:50:08.424Z,6.60
2023-05-19T23:52:36.248Z,6.10
2023-05-19T23:55:04.257Z,6.20
2023-05-19T23:57:32.027Z,6.50
